createdAt,value
2022-09-11T12:42:30.440Z,1.83
2022-09-11T12:45:39.498Z,1.58
2022-09-11T12:51:35.568Z,1.90
2022-09-11T12:54:36.281Z,1.48
2022-09-11T12:57:22.196Z,3.47
2022-09-11T13:49:04.261Z,1.45
2022-09-11T14:49:07.430Z,1.75
2022-09-11T15:58:45.833Z,1.88
2022-09-11T16:18:45.935Z,1.95
2022-09-11T16:42:53.104Z,2.42
2022-09-11T16:45:30.924Z,3.65
2022-09-11T16:48:00.866Z,2.42
2022-09-11T16:50:29.594Z,4.00
2022-09-11T16:53:02.868Z,5.90
2022-09-11T16:55:29.986Z,3.60
2022-09-11T16:58:01.061Z,2.45
2022-09-11T17:00:31.925Z,3.03
2022-09-11T17:03:01.015Z,3.22
2022-09-11T17:05:38.399Z,4.35
2022-09-11T17:08:06.969Z,1.63
2022-09-11T17:10:36.629Z,1.95
2022-09-11T17:13:04.520Z,2.33
2022-09-11T17:20:54.946Z,4.40
2022-09-11T17:23:21.861Z,2.17
2022-09-11T17:25:54.193Z,3.35
2022-09-11T17:28:21.633Z,1.90
2022-09-11T17:31:03.746Z,1.92
2022-09-11T17:33:33.431Z,2.53
2022-09-11T17:36:08.527Z,2.35
2022-09-11T17:42:15.118Z,2.42
2022-09-11T17:52:30.193Z,4.53
2022-09-11T17:59:00.655Z,2.25
2022-09-11T18:01:32.104Z,2.67
2022-09-11T18:04:47.216Z,2.60
2022-09-11T18:09:09.104Z,2.55
2022-09-11T18:10:24.364Z,4.55
2022-09-11T18:13:03.455Z,2.88
2022-09-11T18:18:31.220Z,4.88
2022-09-11T18:21:14.308Z,4.97
2022-09-11T18:24:17.382Z,3.80
2022-09-11T18:31:13.713Z,1.70
2022-09-11T18:37:32.056Z,2.10
2022-09-11T18:51:03.364Z,4.90
2022-09-11T18:53:30.432Z,3.03
2022-09-11T18:57:15.913Z,2.55
2022-09-11T19:00:02.260Z,2.85
2022-09-11T19:02:31.449Z,3.05
2022-09-11T19:08:08.318Z,4.05
2022-09-11T19:10:57.248Z,3.25
2022-09-11T19:13:27.204Z,3.67
2022-09-11T19:16:03.418Z,3.55
2022-09-11T19:18:38.170Z,2.97
2022-09-11T19:21:09.441Z,4.15
2022-09-11T19:23:41.524Z,3.08
2022-09-11T19:26:11.107Z,5.10
2022-09-11T19:28:40.734Z,3.75
2022-09-11T19:31:10.044Z,3.40
2022-09-11T19:33:43.879Z,3.28
2022-09-11T19:36:17.597Z,4.57
2022-09-11T19:38:49.757Z,5.80
2022-09-11T19:41:23.976Z,3.05
2022-09-11T19:43:51.204Z,4.07
2022-09-11T19:46:25.582Z,4.32
2022-09-11T19:48:56.347Z,3.80
2022-09-11T19:51:28.915Z,3.95
2022-09-11T19:54:17.727Z,3.67
2022-09-11T19:56:50.932Z,3.70
2022-09-11T19:59:22.490Z,3.70
2022-09-11T20:01:58.271Z,4.03
2022-09-11T20:04:37.652Z,4.10
2022-09-11T20:07:04.612Z,5.57
2022-09-11T20:09:42.988Z,6.43
2022-09-11T20:12:24.840Z,8.15
2022-09-11T20:18:35.395Z,4.75
2022-09-11T20:24:18.657Z,7.25
2022-09-11T20:27:11.271Z,4.32
2022-09-11T20:30:00.498Z,4.93
2022-09-11T20:32:52.287Z,5.25
2022-09-11T20:35:23.220Z,5.38
2022-09-11T20:38:14.527Z,4.95
2022-09-11T20:40:53.313Z,5.00
2022-09-11T20:43:58.163Z,5.10
2022-09-11T20:46:29.138Z,6.18
2022-09-11T20:48:56.057Z,5.65
2022-09-11T20:51:23.350Z,4.72
2022-09-11T20:53:50.477Z,5.50
2022-09-11T20:56:22.375Z,5.15
2022-09-11T20:58:53.611Z,5.63
2022-09-11T21:01:25.477Z,5.47
2022-09-11T21:04:00.469Z,6.68
2022-09-11T21:06:31.730Z,6.22
2022-09-11T21:09:05.653Z,6.05
2022-09-11T21:11:37.712Z,7.22
2022-09-11T21:14:15.921Z,7.38
2022-09-11T21:16:48.628Z,7.40
2022-09-11T21:19:20.512Z,7.00
2022-09-11T21:21:49.880Z,6.22
2022-09-11T21:24:25.716Z,6.95
2022-09-11T21:26:58.197Z,7.38
2022-09-11T21:29:40.098Z,6.85
2022-09-11T21:32:10.242Z,6.97
2022-09-11T21:34:52.103Z,8.15
2022-09-11T21:37:27.732Z,7.90
2022-09-11T21:40:16.353Z,7.25
2022-09-11T21:42:49.950Z,7.80
2022-09-11T21:45:26.861Z,10.57
2022-09-11T21:48:02.876Z,9.48
2022-09-11T21:50:40.520Z,8.05
2022-09-11T21:53:08.638Z,9.77
2022-09-11T21:55:45.616Z,9.18
2022-09-11T21:58:24.432Z,10.60
2022-09-11T22:01:11.893Z,10.43
2022-09-11T22:03:41.919Z,11.38
2022-09-11T22:06:12.708Z,16.42
2022-09-11T22:08:55.101Z,13.25
2022-09-11T22:11:23.090Z,13.23
2022-09-11T22:13:56.874Z,13.00
2022-09-11T22:16:50.795Z,14.45
2022-09-11T22:19:20.682Z,12.23
2022-09-11T22:21:59.622Z,12.80
2022-09-11T22:24:26.366Z,13.00
2022-09-11T22:27:02.786Z,15.23
2022-09-11T22:29:32.914Z,14.35
2022-09-11T22:32:13.488Z,14.77
2022-09-11T22:34:45.152Z,13.35
2022-09-11T22:37:25.098Z,14.20
2022-09-11T22:39:55.587Z,14.20
2022-09-11T22:42:24.997Z,14.45
2022-09-11T22:44:52.352Z,13.90
2022-09-11T22:47:26.329Z,12.27
2022-09-11T22:49:57.973Z,17.10
2022-09-11T22:52:29.723Z,14.20
2022-09-11T22:54:57.096Z,13.52
2022-09-11T22:57:31.347Z,13.95
2022-09-11T23:00:09.065Z,13.45
2022-09-11T23:02:40.009Z,14.85
2022-09-11T23:05:09.625Z,15.75
2022-09-11T23:07:36.427Z,14.20
2022-09-11T23:10:06.066Z,16.88
2022-09-11T23:12:37.495Z,14.98
2022-09-11T23:17:43.108Z,12.95
2022-09-11T23:25:21.696Z,15.85
2022-09-11T23:27:53.713Z,14.15
2022-09-11T23:30:25.678Z,14.32
2022-09-11T23:32:54.555Z,14.85
2022-09-11T23:35:21.510Z,15.25
2022-09-11T23:37:48.890Z,16.77
2022-09-11T23:40:17.926Z,15.05
2022-09-11T23:42:47.860Z,15.25
2022-09-11T23:45:15.212Z,15.38
2022-09-11T23:47:51.079Z,14.95
2022-09-11T23:50:22.117Z,15.70
2022-09-11T23:52:52.364Z,15.00
2022-09-11T23:55:25.743Z,15.15
2022-09-11T23:57:59.205Z,15.52
